Terminal Aerodrome Forecast
Issued by NWS Boston, MA

Home | Current Version | Previous Version | Text Only | Print | Product List | Glossary On
Versions: 1 2 3 4 5 6 7 8 9 10 11 12 13 14 15 16 17 18 19 20 21 22
000
FTUS41 KBOX 291720
TAFBOS
TAF
KBOS 291720Z 2918/3024 06007KT P6SM BKN012
     FM300000 08006KT 5SM BR BKN008
     FM300400 18004KT 2SM BR VCSH OVC003
     FM301000 20004KT 1SM -SHRA BR OVC003
     FM301800 22008KT 5SM -SHRA BR OVC015
     FM302100 22008KT P6SM OVC015
     FM302200 22008KT P6SM OVC050=

USA.gov is the U.S. government's official web portal to all federal, state and local government web resources and services.